createdAt,value
2018-03-27T00:01:00.716Z,97972.11
2018-03-27T00:03:28.337Z,97974.33
2018-03-27T00:05:56.040Z,97984.89
2018-03-27T00:08:23.710Z,97983.31
2018-03-27T00:10:51.347Z,97978.12
2018-03-27T00:13:18.974Z,97979.75
2018-03-27T00:15:47.630Z,97985.97
2018-03-27T00:18:15.253Z,97988.06
2018-03-27T00:20:42.868Z,97987.19
2018-03-27T00:23:10.556Z,97992.51
2018-03-27T00:25:38.181Z,98002.35
2018-03-27T00:28:17.614Z,98002.69
2018-03-27T00:30:56.824Z,98005.56
2018-03-27T00:33:36.271Z,98004.24
2018-03-27T00:36:15.651Z,98012.00
2018-03-27T00:38:54.945Z,98013.38
2018-03-27T00:44:32.526Z,98006.05
2018-03-27T00:47:00.166Z,98012.44
2018-03-27T00:49:27.742Z,98007.42
2018-03-27T00:51:55.383Z,98013.22
2018-03-27T00:54:23.030Z,98015.91
2018-03-27T00:56:50.613Z,98022.35
2018-03-27T00:59:18.733Z,98022.09
2018-03-27T01:01:47.430Z,98022.35
2018-03-27T01:04:15.009Z,98020.16
2018-03-27T01:06:42.641Z,98025.02
2018-03-27T01:09:10.252Z,98033.08
2018-03-27T01:11:37.844Z,98033.73
2018-03-27T01:14:05.497Z,98042.38
2018-03-27T01:16:33.083Z,98034.75
2018-03-27T01:19:00.678Z,98038.15
2018-03-27T01:21:29.417Z,98053.12
2018-03-27T01:23:57.011Z,98057.21
2018-03-27T01:26:24.611Z,98057.98
2018-03-27T01:28:52.246Z,98062.18
2018-03-27T01:31:19.829Z,98063.09
2018-03-27T01:33:47.415Z,98057.36
2018-03-27T01:36:15.047Z,98049.55
2018-03-27T01:38:42.641Z,98051.02
2018-03-27T01:41:10.214Z,98047.73
2018-03-27T01:43:37.841Z,98047.02
2018-03-27T01:46:05.500Z,98047.11
2018-03-27T01:48:33.087Z,98038.11
2018-03-27T01:51:00.726Z,98041.92
2018-03-27T01:53:28.324Z,98044.59
2018-03-27T01:55:55.922Z,98039.70
2018-03-27T01:58:23.548Z,98041.63
2018-03-27T02:00:51.164Z,98046.03
2018-03-27T02:03:18.768Z,98047.29
2018-03-27T02:05:46.473Z,98043.94
2018-03-27T02:08:14.064Z,98051.30
2018-03-27T02:10:41.099Z,98056.90
2018-03-27T02:13:14.334Z,98054.27
2018-03-27T02:15:47.278Z,98060.95
2018-03-27T02:18:20.380Z,98060.23
2018-03-27T02:20:53.451Z,98058.05
2018-03-27T02:23:22.155Z,98052.73
2018-03-27T02:25:49.743Z,98055.17
2018-03-27T02:28:17.328Z,98064.14
2018-03-27T02:30:44.980Z,98062.36
2018-03-27T02:33:12.570Z,98051.25
2018-03-27T02:35:40.162Z,98059.14
2018-03-27T02:38:08.046Z,98045.28
2018-03-27T02:40:35.693Z,98041.70
2018-03-27T02:43:03.295Z,98036.23
2018-03-27T02:45:31.004Z,98036.51
2018-03-27T02:47:58.672Z,98036.65
2018-03-27T02:50:26.631Z,98048.80
2018-03-27T02:52:54.264Z,98050.98
2018-03-27T02:55:21.919Z,98044.97
2018-03-27T02:57:49.531Z,98051.55
2018-03-27T03:00:17.275Z,98045.64
2018-03-27T03:02:44.863Z,98051.79
2018-03-27T03:05:12.448Z,98049.96
2018-03-27T03:07:40.088Z,98063.33
2018-03-27T03:10:08.639Z,98055.44
2018-03-27T03:12:36.216Z,98053.09
2018-03-27T03:15:03.905Z,98054.87
2018-03-27T03:17:31.537Z,98058.41
2018-03-27T03:19:59.107Z,98057.47
2018-03-27T03:22:26.733Z,98060.33
2018-03-27T03:24:54.317Z,98068.89
2018-03-27T03:27:21.889Z,98071.57
2018-03-27T03:29:49.522Z,98068.64
2018-03-27T03:32:17.093Z,98071.81
2018-03-27T03:34:44.698Z,98078.17
2018-03-27T03:37:12.529Z,98074.42
2018-03-27T03:39:40.164Z,98074.66
2018-03-27T03:42:07.749Z,98078.13
2018-03-27T03:44:35.441Z,98083.84
2018-03-27T03:47:03.037Z,98090.55
2018-03-27T03:49:30.700Z,98086.91
2018-03-27T03:51:58.329Z,98090.13
2018-03-27T03:54:25.908Z,98097.65
2018-03-27T03:56:53.485Z,98097.91
2018-03-27T03:59:21.113Z,98099.09
2018-03-27T04:01:49.146Z,98102.84
2018-03-27T04:04:16.722Z,98105.59
2018-03-27T04:06:44.417Z,98118.89
2018-03-27T04:09:11.993Z,98119.12
2018-03-27T04:11:39.571Z,98125.17
2018-03-27T04:14:07.469Z,98128.77
2018-03-27T04:16:35.047Z,98134.29
2018-03-27T04:19:02.637Z,98142.02
2018-03-27T04:21:30.272Z,98127.53
2018-03-27T04:23:57.849Z,98140.55
2018-03-27T04:26:25.432Z,98138.05
2018-03-27T04:28:53.077Z,98141.41
2018-03-27T04:31:20.655Z,98150.21
2018-03-27T04:33:48.252Z,98154.39
2018-03-27T04:36:15.889Z,98153.88
2018-03-27T04:38:43.541Z,98156.06
2018-03-27T04:41:11.142Z,98160.66
2018-03-27T04:43:38.831Z,98160.63
2018-03-27T04:46:06.407Z,98155.22
2018-03-27T04:48:34.046Z,98158.72
2018-03-27T04:51:02.345Z,98160.03
2018-03-27T04:53:29.984Z,98169.06
2018-03-27T04:55:57.567Z,98170.14
2018-03-27T04:58:25.298Z,98170.83
2018-03-27T05:00:52.900Z,98174.91
2018-03-27T05:03:20.479Z,98171.83
2018-03-27T05:05:48.179Z,98176.66
2018-03-27T05:08:15.817Z,98171.22
2018-03-27T05:10:44.458Z,98174.95
2018-03-27T05:13:12.108Z,98174.77
2018-03-27T05:15:39.697Z,98172.98
2018-03-27T05:18:07.290Z,98169.42
2018-03-27T05:20:34.941Z,98171.64
2018-03-27T05:23:02.592Z,98174.72
2018-03-27T05:25:30.219Z,98174.08
2018-03-27T05:27:58.080Z,98171.30
2018-03-27T05:30:25.665Z,98175.05
2018-03-27T05:32:53.327Z,98173.36
2018-03-27T05:35:20.933Z,98168.32
2018-03-27T05:37:48.528Z,98169.48
2018-03-27T05:40:16.119Z,98167.59
2018-03-27T05:42:43.755Z,98166.56
2018-03-27T05:45:11.684Z,98169.40
2018-03-27T05:47:39.272Z,98169.73
2018-03-27T05:50:06.921Z,98171.33
2018-03-27T05:52:34.669Z,98163.72
2018-03-27T05:55:02.348Z,98169.52
2018-03-27T05:57:30.080Z,98166.58
2018-03-27T05:59:57.701Z,98163.64
2018-03-27T06:02:25.349Z,98167.78
2018-03-27T06:04:53.245Z,98174.95
2018-03-27T06:07:20.849Z,98179.33
2018-03-27T06:09:48.521Z,98183.94
2018-03-27T06:12:16.178Z,98180.72
2018-03-27T06:14:43.838Z,98186.85
2018-03-27T06:17:11.483Z,98178.11
2018-03-27T06:19:39.115Z,98188.59
2018-03-27T06:22:06.708Z,98190.48
2018-03-27T06:24:34.375Z,98186.06
2018-03-27T06:27:02.127Z,98185.83
2018-03-27T06:29:29.708Z,98188.56
2018-03-27T06:31:57.320Z,98194.77
2018-03-27T06:34:24.974Z,98192.93
2018-03-27T06:36:52.565Z,98196.51
2018-03-27T06:39:20.192Z,98194.27
2018-03-27T06:41:47.958Z,98188.09
2018-03-27T06:44:15.602Z,98201.47
2018-03-27T06:46:43.196Z,98196.28
2018-03-27T06:49:10.878Z,98201.34
2018-03-27T06:51:39.669Z,98203.23
2018-03-27T06:54:08.897Z,98200.47
2018-03-27T06:56:36.565Z,98206.53
2018-03-27T06:59:04.278Z,98214.38
2018-03-27T07:01:31.852Z,98217.20
2018-03-27T07:03:59.541Z,98219.56
2018-03-27T07:06:27.161Z,98218.27
2018-03-27T07:08:54.836Z,98221.11
2018-03-27T07:11:22.864Z,98217.13
2018-03-27T07:13:50.831Z,98220.91
2018-03-27T07:16:18.429Z,98220.23
2018-03-27T07:18:46.060Z,98224.00
2018-03-27T07:21:13.737Z,98222.77
2018-03-27T07:23:41.338Z,98228.06
2018-03-27T07:26:09.014Z,98221.98
2018-03-27T07:28:36.685Z,98215.66
2018-03-27T07:31:04.310Z,98226.52
2018-03-27T07:33:32.413Z,98222.37
2018-03-27T07:36:00.017Z,98224.68
2018-03-27T07:38:27.618Z,98224.17
2018-03-27T07:40:55.276Z,98226.20
2018-03-27T07:43:33.513Z,98231.88
2018-03-27T07:46:02.441Z,98227.51
2018-03-27T07:48:36.785Z,98227.94
2018-03-27T07:51:04.997Z,98228.10
2018-03-27T07:53:32.598Z,98225.33
2018-03-27T07:56:01.423Z,98230.80
2018-03-27T07:58:29.094Z,98229.11
2018-03-27T08:00:56.689Z,98226.34
2018-03-27T08:03:24.348Z,98229.41
2018-03-27T08:05:52.022Z,98221.16
2018-03-27T08:08:19.705Z,98223.27
2018-03-27T08:10:47.300Z,98231.74
2018-03-27T08:13:15.226Z,98218.80
2018-03-27T08:15:42.825Z,98218.98
2018-03-27T08:18:10.420Z,98216.10
2018-03-27T08:20:38.060Z,98221.41
2018-03-27T08:23:05.648Z,98224.70
2018-03-27T08:25:33.280Z,98222.72
2018-03-27T08:28:00.918Z,98224.87
2018-03-27T08:30:28.534Z,98227.27
2018-03-27T08:32:56.135Z,98223.13
2018-03-27T08:35:23.856Z,98221.73
2018-03-27T08:37:51.448Z,98215.36
2018-03-27T08:40:19.054Z,98220.30
2018-03-27T08:42:46.696Z,98220.50
2018-03-27T08:45:14.292Z,98203.93
2018-03-27T08:47:41.889Z,98208.38
2018-03-27T08:50:09.780Z,98213.94
2018-03-27T08:52:37.377Z,98212.08
2018-03-27T08:55:05.060Z,98220.89
2018-03-27T08:57:32.860Z,98214.35
2018-03-27T09:00:00.469Z,98212.38
2018-03-27T09:02:28.059Z,98206.95
2018-03-27T09:04:55.702Z,98199.78
2018-03-27T09:07:23.279Z,98196.53
2018-03-27T09:09:50.868Z,98197.80
2018-03-27T09:12:18.558Z,98194.20
2018-03-27T09:14:46.154Z,98196.50
2018-03-27T09:17:13.746Z,98191.91
2018-03-27T09:19:41.392Z,98196.70
2018-03-27T09:22:09.012Z,98196.72
2018-03-27T09:24:36.658Z,98191.62
2018-03-27T09:27:04.309Z,98195.48
2018-03-27T09:29:31.961Z,98199.05
2018-03-27T09:31:59.606Z,98198.19
2018-03-27T09:34:27.259Z,98197.71
2018-03-27T09:36:54.848Z,98201.72
2018-03-27T09:39:25.028Z,98196.09
2018-03-27T09:41:54.495Z,98193.64
2018-03-27T09:44:24.409Z,98191.20
2018-03-27T09:46:54.682Z,98189.91
2018-03-27T09:49:28.953Z,98194.30
2018-03-27T09:51:58.534Z,98189.88
2018-03-27T09:54:30.406Z,98183.24
2018-03-27T09:59:52.617Z,98174.32
2018-03-27T10:05:12.232Z,98171.54
2018-03-27T10:07:39.859Z,98176.91
2018-03-27T10:10:07.476Z,98172.08
2018-03-27T10:12:35.361Z,98175.61
2018-03-27T10:15:03.613Z,98180.52
2018-03-27T10:17:31.220Z,98181.28
2018-03-27T10:19:58.899Z,98175.51
2018-03-27T10:22:26.506Z,98175.64
2018-03-27T10:24:54.128Z,98174.70
2018-03-27T10:27:21.861Z,98177.17
2018-03-27T10:29:49.459Z,98176.67
2018-03-27T10:32:17.084Z,98173.17
2018-03-27T10:34:44.727Z,98173.48
2018-03-27T10:37:12.408Z,98171.63
2018-03-27T10:39:40.816Z,98168.09
2018-03-27T10:42:08.471Z,98165.50
2018-03-27T10:44:36.100Z,98173.83
2018-03-27T10:47:03.726Z,98166.50
2018-03-27T10:49:31.378Z,98171.00
2018-03-27T10:51:59.008Z,98166.28
2018-03-27T10:54:26.630Z,98159.38
2018-03-27T10:56:54.293Z,98158.19
2018-03-27T10:59:22.012Z,98146.53
2018-03-27T11:01:49.745Z,98142.05
2018-03-27T11:04:17.514Z,98142.16
2018-03-27T11:06:45.204Z,98138.08
2018-03-27T11:09:12.822Z,98144.23
2018-03-27T11:11:40.509Z,98132.58
2018-03-27T11:14:08.177Z,98141.97
2018-03-27T11:16:35.823Z,98136.41
2018-03-27T11:19:03.500Z,98139.72
2018-03-27T11:21:31.134Z,98134.44
2018-03-27T11:23:58.750Z,98133.37
2018-03-27T11:26:26.469Z,98143.52
2018-03-27T11:28:54.088Z,98136.59
2018-03-27T11:31:21.736Z,98132.95
2018-03-27T11:33:49.414Z,98124.69
2018-03-27T11:36:17.040Z,98130.96
2018-03-27T11:38:44.666Z,98125.72
2018-03-27T11:41:12.349Z,98114.47
2018-03-27T11:43:39.957Z,98117.96
2018-03-27T11:46:07.559Z,98118.87
2018-03-27T11:48:35.203Z,98125.34
2018-03-27T11:51:03.666Z,98121.45
2018-03-27T11:53:31.269Z,98119.03
2018-03-27T11:55:58.921Z,98123.08
2018-03-27T11:58:26.558Z,98121.40
2018-03-27T12:00:54.187Z,98122.84
2018-03-27T12:03:22.098Z,98123.58
2018-03-27T12:05:49.742Z,98125.51
2018-03-27T12:08:17.358Z,98130.04
2018-03-27T12:10:45.122Z,98131.42
2018-03-27T12:13:12.738Z,98128.61
2018-03-27T12:15:40.359Z,98128.95
2018-03-27T12:18:08.014Z,98128.53
2018-03-27T12:20:35.640Z,98128.95
2018-03-27T12:23:03.941Z,98133.12
2018-03-27T12:25:31.626Z,98130.58
2018-03-27T12:27:59.263Z,98129.33
2018-03-27T12:30:26.931Z,98132.05
2018-03-27T12:32:54.646Z,98137.38
2018-03-27T12:35:22.267Z,98143.42
2018-03-27T12:37:49.851Z,98140.58
2018-03-27T12:40:17.494Z,98146.11
2018-03-27T12:42:45.183Z,98150.34
2018-03-27T12:45:12.940Z,98153.23
2018-03-27T12:47:40.618Z,98146.93
2018-03-27T12:50:08.224Z,98144.72
2018-03-27T12:52:35.820Z,98150.91
2018-03-27T12:55:03.526Z,98149.82
2018-03-27T12:57:31.137Z,98154.16
2018-03-27T12:59:58.814Z,98150.77
2018-03-27T13:02:26.604Z,98155.61
2018-03-27T13:04:54.448Z,98147.36
2018-03-27T13:07:22.062Z,98147.48
2018-03-27T13:09:50.071Z,98152.34
2018-03-27T13:12:18.383Z,98146.30
2018-03-27T13:14:46.012Z,98151.42
2018-03-27T13:17:13.872Z,98155.06
2018-03-27T13:19:41.524Z,98160.86
2018-03-27T13:22:09.192Z,98157.05
2018-03-27T13:24:36.866Z,98149.38
2018-03-27T13:27:04.543Z,98145.35
2018-03-27T13:29:32.943Z,98145.84
2018-03-27T13:32:00.574Z,98151.23
2018-03-27T13:34:31.111Z,98153.24
2018-03-27T13:36:58.785Z,98159.58
2018-03-27T13:39:26.451Z,98160.89
2018-03-27T13:41:54.038Z,98150.92
2018-03-27T13:44:21.645Z,98143.52
2018-03-27T13:46:49.408Z,98140.57
2018-03-27T13:49:17.020Z,98148.28
2018-03-27T13:54:11.565Z,98141.77
2018-03-27T13:56:39.180Z,98144.24
2018-03-27T13:59:06.794Z,98151.06
2018-03-27T14:01:34.523Z,98159.70
2018-03-27T14:04:02.119Z,98161.65
2018-03-27T14:06:29.852Z,98162.18
2018-03-27T14:08:57.494Z,98160.55
2018-03-27T14:11:25.075Z,98159.98
2018-03-27T14:13:52.689Z,98158.53
2018-03-27T14:16:20.337Z,98153.44
2018-03-27T14:18:47.964Z,98154.20
2018-03-27T14:21:15.633Z,98155.77
2018-03-27T14:23:43.343Z,98163.05
2018-03-27T14:26:10.940Z,98161.03
2018-03-27T14:28:38.556Z,98160.92
2018-03-27T14:31:06.420Z,98157.73
2018-03-27T14:33:34.102Z,98164.50
2018-03-27T14:36:01.719Z,98160.18
2018-03-27T14:38:29.403Z,98161.81
2018-03-27T14:40:57.105Z,98163.89
2018-03-27T14:43:25.338Z,98164.33
2018-03-27T14:45:53.324Z,98167.18
2018-03-27T14:48:20.984Z,98164.92
2018-03-27T14:50:48.649Z,98162.19
2018-03-27T14:53:16.378Z,98172.11
2018-03-27T14:55:44.137Z,98169.92
2018-03-27T14:58:11.744Z,98171.25
2018-03-27T15:00:39.379Z,98170.63
2018-03-27T15:03:06.989Z,98169.45
2018-03-27T15:05:34.602Z,98170.11
2018-03-27T15:08:02.313Z,98175.25
2018-03-27T15:10:30.007Z,98178.20
2018-03-27T15:12:57.597Z,98178.71
2018-03-27T15:15:25.315Z,98179.43
2018-03-27T15:17:52.914Z,98184.14
2018-03-27T15:20:20.575Z,98187.95
2018-03-27T15:22:48.260Z,98187.94
2018-03-27T15:25:15.941Z,98187.19
2018-03-27T15:27:43.537Z,98191.27
2018-03-27T15:30:11.483Z,98183.59
2018-03-27T15:32:39.099Z,98181.67
2018-03-27T15:35:06.715Z,98181.59
2018-03-27T15:37:34.508Z,98179.70
2018-03-27T15:40:02.158Z,98178.47
2018-03-27T15:42:29.743Z,98185.34
2018-03-27T15:44:57.910Z,98183.38
2018-03-27T15:47:25.499Z,98184.25
2018-03-27T15:49:53.084Z,98182.69
2018-03-27T15:52:20.721Z,98182.03
2018-03-27T15:54:48.347Z,98182.92
2018-03-27T15:57:15.948Z,98187.72
2018-03-27T15:59:43.656Z,98191.44
2018-03-27T16:02:11.279Z,98196.66
2018-03-27T16:04:38.938Z,98201.64
2018-03-27T16:07:06.785Z,98207.55
2018-03-27T16:09:34.715Z,98214.80
2018-03-27T16:12:02.396Z,98222.06
2018-03-27T16:14:30.168Z,98219.57
2018-03-27T16:16:57.988Z,98232.27
2018-03-27T16:19:25.722Z,98233.65
2018-03-27T16:21:53.646Z,98240.64
2018-03-27T16:24:22.252Z,98234.61
2018-03-27T16:26:50.303Z,98240.94
2018-03-27T16:29:18.186Z,98239.71
2018-03-27T16:31:46.610Z,98236.64
2018-03-27T16:34:14.365Z,98243.06
2018-03-27T16:36:42.213Z,98241.34
2018-03-27T16:39:10.102Z,98244.75
2018-03-27T16:41:38.015Z,98236.95
2018-03-27T16:44:05.960Z,98235.26
2018-03-27T16:46:33.845Z,98225.81
2018-03-27T16:49:01.798Z,98226.77
2018-03-27T16:51:29.734Z,98230.11
2018-03-27T16:53:57.619Z,98224.80
2018-03-27T16:56:25.504Z,98230.14
2018-03-27T16:58:53.483Z,98222.80
2018-03-27T17:01:21.348Z,98222.43
2018-03-27T17:03:49.230Z,98212.14
2018-03-27T17:06:17.181Z,98215.70
2018-03-27T17:08:45.084Z,98214.06
2018-03-27T17:13:50.286Z,98244.33
2018-03-27T17:16:18.155Z,98245.22
2018-03-27T17:18:45.978Z,98247.97
2018-03-27T17:21:13.894Z,98256.09
2018-03-27T17:23:41.775Z,98266.92
2018-03-27T17:26:09.662Z,98274.55
2018-03-27T17:28:42.816Z,98277.50
2018-03-27T17:31:10.698Z,98282.57
2018-03-27T17:33:38.574Z,98293.80
2018-03-27T17:36:06.529Z,98299.02
2018-03-27T17:38:34.413Z,98300.17
2018-03-27T17:41:02.283Z,98305.48
2018-03-27T17:43:31.481Z,98312.28
2018-03-27T17:45:59.478Z,98311.95
2018-03-27T17:51:10.802Z,98331.59
2018-03-27T17:53:38.976Z,98340.37
2018-03-27T17:56:06.905Z,98335.20
2018-03-27T17:58:34.931Z,98337.64
2018-03-27T18:01:02.928Z,98347.25
2018-03-27T18:03:31.930Z,98353.47
2018-03-27T18:05:59.829Z,98354.63
2018-03-27T18:08:27.760Z,98364.06
2018-03-27T18:10:55.644Z,98369.64
2018-03-27T18:13:24.217Z,98370.48
2018-03-27T18:15:52.399Z,98376.36
2018-03-27T18:18:20.267Z,98370.06
2018-03-27T18:20:49.142Z,98377.36
2018-03-27T18:23:17.096Z,98380.55
2018-03-27T18:25:45.908Z,98386.00
2018-03-27T18:28:13.773Z,98388.88
2018-03-27T18:30:41.729Z,98401.55
2018-03-27T18:33:09.711Z,98406.59
2018-03-27T18:35:37.603Z,98407.94
2018-03-27T18:38:05.585Z,98406.86
2018-03-27T18:40:33.470Z,98408.86
2018-03-27T18:43:01.349Z,98410.90
2018-03-27T18:45:29.280Z,98414.59
2018-03-27T18:47:57.168Z,98418.36
2018-03-27T18:50:25.118Z,98418.12
2018-03-27T18:52:53.052Z,98420.81
2018-03-27T18:55:20.937Z,98420.73
2018-03-27T18:57:48.816Z,98426.60
2018-03-27T19:00:16.818Z,98437.51
2018-03-27T19:02:44.710Z,98439.45
2018-03-27T19:05:12.621Z,98449.52
2018-03-27T19:07:41.697Z,98452.56
2018-03-27T19:10:09.574Z,98463.13
2018-03-27T19:12:37.448Z,98463.82
2018-03-27T19:15:05.403Z,98473.38
2018-03-27T19:17:33.387Z,98479.23
2018-03-27T19:20:01.354Z,98479.77
2018-03-27T19:22:29.375Z,98486.63
2018-03-27T19:24:57.256Z,98482.95
2018-03-27T19:27:25.325Z,98483.69
2018-03-27T19:29:53.271Z,98487.65
2018-03-27T19:32:21.145Z,98488.42
2018-03-27T19:34:49.012Z,98495.73
2018-03-27T19:37:17.007Z,98493.81
2018-03-27T19:39:44.890Z,98501.80
2018-03-27T19:42:12.765Z,98506.48
2018-03-27T19:44:40.899Z,98508.59
2018-03-27T19:47:08.790Z,98508.31
2018-03-27T19:49:37.844Z,98484.77
2018-03-27T19:52:09.562Z,98497.94
2018-03-27T19:54:37.484Z,98505.59
2018-03-27T19:57:05.368Z,98504.16
2018-03-27T19:59:33.535Z,98499.33
2018-03-27T20:02:01.495Z,98501.70
2018-03-27T20:04:29.369Z,98502.41
2018-03-27T20:06:57.901Z,98499.64
2018-03-27T20:09:25.808Z,98496.95
2018-03-27T20:11:53.675Z,98501.58
2018-03-27T20:14:21.663Z,98507.74
2018-03-27T20:16:49.533Z,98514.90
2018-03-27T20:19:17.454Z,98497.80
2018-03-27T20:21:45.367Z,98495.53
2018-03-27T20:24:13.237Z,98495.28
2018-03-27T20:26:41.100Z,98497.38
2018-03-27T20:29:09.036Z,98495.95
2018-03-27T20:31:36.908Z,98492.98
2018-03-27T20:34:04.848Z,98490.75
2018-03-27T20:36:33.214Z,98486.99
2018-03-27T20:39:01.080Z,98482.03
2018-03-27T20:41:29.001Z,98487.48
2018-03-27T20:43:56.917Z,98482.45
2018-03-27T20:46:24.780Z,98482.00
2018-03-27T20:48:53.590Z,98482.45
2018-03-27T20:51:21.573Z,98477.91
2018-03-27T20:53:49.415Z,98480.30
2018-03-27T20:56:17.278Z,98480.56
2018-03-27T20:58:45.182Z,98472.75
2018-03-27T21:01:13.015Z,98467.92
2018-03-27T21:03:40.857Z,98460.60
2018-03-27T21:06:08.785Z,98451.47
2018-03-27T21:08:36.615Z,98447.19
2018-03-27T21:11:04.489Z,98439.36
2018-03-27T21:13:32.754Z,98436.38
2018-03-27T21:16:00.584Z,98435.18
2018-03-27T21:18:28.414Z,98431.84
2018-03-27T21:20:56.371Z,98430.63
2018-03-27T21:23:24.174Z,98418.20
2018-03-27T21:25:51.860Z,98417.48
2018-03-27T21:28:19.641Z,98416.45
2018-03-27T21:30:47.199Z,98417.22
2018-03-27T21:33:14.801Z,98413.61
2018-03-27T21:35:42.411Z,98402.22
2018-03-27T21:38:09.965Z,98407.59
2018-03-27T21:40:37.509Z,98412.36
2018-03-27T21:43:05.428Z,98405.48
2018-03-27T21:45:33.016Z,98426.06
2018-03-27T21:48:00.568Z,98434.47
2018-03-27T21:50:28.404Z,98445.87
2018-03-27T21:52:55.979Z,98449.75
2018-03-27T21:55:23.542Z,98446.87
2018-03-27T21:57:51.205Z,98449.24
2018-03-27T22:00:18.850Z,98441.75
2018-03-27T22:02:46.417Z,98442.91
2018-03-27T22:05:14.020Z,98450.28
2018-03-27T22:07:41.582Z,98446.58
2018-03-27T22:10:09.138Z,98446.69
2018-03-27T22:12:36.801Z,98447.58
2018-03-27T22:15:04.442Z,98449.50
2018-03-27T22:17:32.000Z,98452.63
2018-03-27T22:20:00.544Z,98449.48
2018-03-27T22:22:28.339Z,98454.89
2018-03-27T22:24:55.884Z,98447.05
2018-03-27T22:27:23.499Z,98454.09
2018-03-27T22:29:51.339Z,98444.78
2018-03-27T22:32:18.889Z,98436.05
2018-03-27T22:34:46.706Z,98437.30
2018-03-27T22:37:14.269Z,98427.28
2018-03-27T22:39:41.831Z,98429.51
2018-03-27T22:42:09.460Z,98431.03
2018-03-27T22:44:37.015Z,98439.59
2018-03-27T22:47:04.639Z,98436.91
2018-03-27T22:49:32.239Z,98444.56
2018-03-27T22:52:00.404Z,98442.83
2018-03-27T22:54:28.975Z,98444.41
2018-03-27T22:56:57.006Z,98443.17
2018-03-27T22:59:24.640Z,98444.46
2018-03-27T23:01:52.198Z,98435.91
2018-03-27T23:04:19.841Z,98434.33
2018-03-27T23:06:47.462Z,98426.47
2018-03-27T23:09:15.020Z,98429.41
2018-03-27T23:11:42.637Z,98427.31
2018-03-27T23:14:10.198Z,98431.48
2018-03-27T23:16:37.803Z,98434.28
2018-03-27T23:19:05.508Z,98431.76
2018-03-27T23:21:33.065Z,98426.92
2018-03-27T23:24:00.781Z,98426.34
2018-03-27T23:26:29.256Z,98430.88
2018-03-27T23:28:56.873Z,98425.03
2018-03-27T23:31:24.437Z,98427.80
2018-03-27T23:33:53.173Z,98416.61
2018-03-27T23:36:20.749Z,98411.60
2018-03-27T23:38:48.298Z,98414.78
2018-03-27T23:41:15.937Z,98412.27
2018-03-27T23:43:43.490Z,98407.03
2018-03-27T23:46:14.752Z,98409.31
2018-03-27T23:48:43.830Z,98411.86
2018-03-27T23:51:11.399Z,98416.16
2018-03-27T23:53:39.026Z,98411.64
2018-03-27T23:56:06.647Z,98413.23
2018-03-27T23:58:34.201Z,98403.59
